La Barge, WY (83123)

7:52 PM MDT on August 28, 2015 (GMT -0600)
Big Piney Calpet Road | | Change Station
CLOSE
Current Station
Personal Weather Station
Location: Big Piney, WY
Elevation: 6890 ft
Nearby Weather Stations

Elev 6890 ft 42.49 °N, 110.11 °W | Updated 13 seconds ago

Partly Cloudy
Partly Cloudy
76.3 °F
Feels Like 75 °F
N
0.0
Wind Variable Wind from NNE
Gusts 0.0 mph

Today
High -- | Low -- °F
--% Chance of Precip.
Yesterday
High -- | Low -- °F
Precip. -- in
6:41 AM 8:01 PM
Waxing Gibbous, 99% visible
Pressure 30.06 in
Visibility 10.0 miles
Clouds Scattered Clouds 11000 ft
Heat Index 75 °F
Dew Point 0 °F
Humidity 5%
Rainfall 0.00 in
Snow Depth Not available.
UV 1 out of 12
Pollen 9.50 out of 12
Air Quality Not available.
Flu Activity Not available.
METAR KBPI 290053Z AUTO 00000KT 10SM SCT110 25/M03 A3029 RMK AO2 SLP178 T02501028
Pressure 30.06 in
Visibility 10.0 miles
Clouds Scattered Clouds 11000 ft
Heat Index 75 °F
Dew Point 0 °F
Humidity 5%
Rainfall 0.00 in
Snow Depth Not available.
UV 1 out of 12
Pollen 9.50 out of 12
Air Quality Not available.
Flu Activity Not available.
METAR KBPI 290053Z AUTO 00000KT 10SM SCT110 25/M03 A3029 RMK AO2 SLP178 T02501028

10-Day Weather Forecast

×

Almanac

Astronomy

Aug. 28, 2015 Rise Set
Actual Time
Civil Twilight
Nautical Twilight
Astronomical Twilight
Moon
Length of Visible Light
Length of Day
Tomorrow will be .
, % of the Moon is Illuminated

Today's Extremes

State Highs State Lows

Community

WunderPhotos

Upload Photos

1,850,566 photos uploaded!

WunderBlogs® & News

Nearby

Air Quality

  Air Quality AQ Index Pollutant
Not available.

Snow Depth

Station Depth Elevation

Earthquake Activity

City Distance Mag. Time & Date
Minimum magnitude displayed is 2.5.

Coastal Water Temperatures

Place Temperature

Stations

Nearby Weather Stations

Station Location Temp. Windchill Dew Point Humidity Wind Precip. Elev Updated Type